sensor_id;sensor_type;location;lat;lon;timestamp;pressure;altitude;pressure_sealevel;temperature;humidity
37132;BME280;23035;50.032;21.978;2024-01-30T00:01:23;65259.19;;;0.85;100.00
37132;BME280;23035;50.032;21.978;2024-01-30T00:06:29;65260.38;;;0.89;100.00
37132;BME280;23035;50.032;21.978;2024-01-30T00:11:34;65281.84;;;1.02;100.00
37132;BME280;23035;50.032;21.978;2024-01-30T00:16:38;65279.84;;;1.03;100.00
37132;BME280;23035;50.032;21.978;2024-01-30T00:21:44;65324.13;;;1.48;100.00
37132;BME280;23035;50.032;21.978;2024-01-30T00:26:48;65338.56;;;1.64;100.00
37132;BME280;23035;50.032;21.978;2024-01-30T00:31:53;65369.47;;;1.93;100.00
37132;BME280;23035;50.032;21.978;2024-01-30T00:37:00;65314.72;;;1.43;100.00
37132;BME280;23035;50.032;21.978;2024-01-30T00:42:05;65386.41;;;2.07;100.00
37132;BME280;23035;50.032;21.978;2024-01-30T00:47:10;65395.03;;;2.18;100.00
37132;BME280;23035;50.032;21.978;2024-01-30T00:52:15;65330.06;;;1.56;100.00
37132;BME280;23035;50.032;21.978;2024-01-30T00:57:20;65284.31;;;1.12;100.00
37132;BME280;23035;50.032;21.978;2024-01-30T01:02:25;65288.34;;;1.11;100.00
37132;BME280;23035;50.032;21.978;2024-01-30T01:07:30;65264.63;;;0.93;100.00
37132;BME280;23035;50.032;21.978;2024-01-30T01:12:35;65198.13;;;0.30;100.00
37132;BME280;23035;50.032;21.978;2024-01-30T01:17:40;65293.88;;;1.21;100.00
37132;BME280;23035;50.032;21.978;2024-01-30T01:22:46;65316.22;;;1.42;100.00
37132;BME280;23035;50.032;21.978;2024-01-30T01:27:51;65316.56;;;1.38;100.00
37132;BME280;23035;50.032;21.978;2024-01-30T01:32:56;65273.97;;;0.97;100.00
37132;BME280;23035;50.032;21.978;2024-01-30T01:38:05;65287.06;;;1.17;100.00
37132;BME280;23035;50.032;21.978;2024-01-30T01:43:10;65217.06;;;0.43;100.00
37132;BME280;23035;50.032;21.978;2024-01-30T01:48:15;65317.28;;;1.43;100.00
37132;BME280;23035;50.032;21.978;2024-01-30T01:53:21;65286.94;;;1.14;100.00
37132;BME280;23035;50.032;21.978;2024-01-30T01:58:27;65235.88;;;0.66;100.00
37132;BME280;23035;50.032;21.978;2024-01-30T02:03:34;65201.75;;;0.31;100.00
37132;BME280;23035;50.032;21.978;2024-01-30T02:08:40;65234.63;;;0.60;100.00
37132;BME280;23035;50.032;21.978;2024-01-30T02:13:45;65215.66;;;0.46;100.00
37132;BME280;23035;50.032;21.978;2024-01-30T02:18:50;65344.75;;;1.65;100.00
37132;BME280;23035;50.032;21.978;2024-01-30T02:23:57;65342.63;;;1.63;100.00
37132;BME280;23035;50.032;21.978;2024-01-30T02:29:02;65294.06;;;1.26;100.00
37132;BME280;23035;50.032;21.978;2024-01-30T02:34:07;65290.34;;;1.23;100.00
37132;BME280;23035;50.032;21.978;2024-01-30T02:39:13;65320.72;;;1.39;100.00
37132;BME280;23035;50.032;21.978;2024-01-30T02:44:18;65335.38;;;1.61;100.00
37132;BME280;23035;50.032;21.978;2024-01-30T02:49:22;65383.31;;;2.07;100.00
37132;BME280;23035;50.032;21.978;2024-01-30T02:54:28;65394.38;;;2.15;100.00
37132;BME280;23035;50.032;21.978;2024-01-30T02:59:33;65374.78;;;1.98;100.00
37132;BME280;23035;50.032;21.978;2024-01-30T03:04:40;65325.91;;;1.54;100.00
37132;BME280;23035;50.032;21.978;2024-01-30T03:09:47;65296.63;;;1.26;100.00
37132;BME280;23035;50.032;21.978;2024-01-30T03:14:51;65344.88;;;1.67;100.00
37132;BME280;23035;50.032;21.978;2024-01-30T03:19:56;65387.34;;;2.06;100.00
37132;BME280;23035;50.032;21.978;2024-01-30T03:25:02;65437.09;;;2.58;100.00
37132;BME280;23035;50.032;21.978;2024-01-30T03:30:08;65362.00;;;1.86;100.00
37132;BME280;23035;50.032;21.978;2024-01-30T03:35:13;65347.63;;;1.72;100.00
37132;BME280;23035;50.032;21.978;2024-01-30T03:40:19;65413.38;;;2.28;100.00
37132;BME280;23035;50.032;21.978;2024-01-30T03:45:24;65299.53;;;1.22;100.00
37132;BME280;23035;50.032;21.978;2024-01-30T03:50:28;65364.38;;;1.81;100.00
37132;BME280;23035;50.032;21.978;2024-01-30T03:55:35;65333.06;;;1.54;100.00
37132;BME280;23035;50.032;21.978;2024-01-30T04:00:39;65339.09;;;1.64;100.00
37132;BME280;23035;50.032;21.978;2024-01-30T04:05:46;65308.78;;;1.35;100.00
37132;BME280;23035;50.032;21.978;2024-01-30T04:10:52;65286.84;;;1.12;100.00
37132;BME280;23035;50.032;21.978;2024-01-30T04:15:59;65222.59;;;0.53;100.00
37132;BME280;23035;50.032;21.978;2024-01-30T04:21:04;65292.59;;;1.15;100.00
37132;BME280;23035;50.032;21.978;2024-01-30T04:26:10;65295.38;;;1.20;100.00
37132;BME280;23035;50.032;21.978;2024-01-30T04:31:15;65232.59;;;0.60;100.00
37132;BME280;23035;50.032;21.978;2024-01-30T04:36:19;65319.41;;;1.46;100.00
37132;BME280;23035;50.032;21.978;2024-01-30T04:41:25;65259.84;;;0.89;100.00
37132;BME280;23035;50.032;21.978;2024-01-30T04:46:34;65333.78;;;1.59;100.00
37132;BME280;23035;50.032;21.978;2024-01-30T04:51:38;65397.06;;;2.17;100.00
37132;BME280;23035;50.032;21.978;2024-01-30T04:56:44;65318.88;;;1.45;100.00
37132;BME280;23035;50.032;21.978;2024-01-30T05:01:48;65251.84;;;0.81;100.00
37132;BME280;23035;50.032;21.978;2024-01-30T05:06:53;65314.63;;;1.41;100.00
37132;BME280;23035;50.032;21.978;2024-01-30T05:11:59;65294.31;;;1.19;100.00
37132;BME280;23035;50.032;21.978;2024-01-30T05:17:03;65337.31;;;1.58;100.00
37132;BME280;23035;50.032;21.978;2024-01-30T05:22:08;65310.78;;;1.35;100.00
37132;BME280;23035;50.032;21.978;2024-01-30T05:27:14;65370.94;;;1.92;100.00
37132;BME280;23035;50.032;21.978;2024-01-30T05:32:18;65339.31;;;1.57;100.00
37132;BME280;23035;50.032;21.978;2024-01-30T05:37:23;65314.41;;;1.36;100.00
37132;BME280;23035;50.032;21.978;2024-01-30T05:42:29;65266.72;;;0.95;100.00
37132;BME280;23035;50.032;21.978;2024-01-30T05:47:34;65303.88;;;1.28;100.00
37132;BME280;23035;50.032;21.978;2024-01-30T05:52:38;65301.34;;;1.28;100.00
37132;BME280;23035;50.032;21.978;2024-01-30T05:57:44;65303.88;;;1.28;100.00
37132;BME280;23035;50.032;21.978;2024-01-30T06:02:48;65285.78;;;1.11;100.00
37132;BME280;23035;50.032;21.978;2024-01-30T06:07:53;65317.72;;;1.41;100.00
37132;BME280;23035;50.032;21.978;2024-01-30T06:12:59;65347.00;;;1.69;100.00
37132;BME280;23035;50.032;21.978;2024-01-30T06:18:04;65351.25;;;1.73;100.00
37132;BME280;23035;50.032;21.978;2024-01-30T06:23:09;65355.94;;;1.76;100.00
37132;BME280;23035;50.032;21.978;2024-01-30T06:28:14;65378.06;;;2.04;100.00
37132;BME280;23035;50.032;21.978;2024-01-30T06:33:19;65401.94;;;2.24;100.00
37132;BME280;23035;50.032;21.978;2024-01-30T06:38:24;65359.69;;;1.79;100.00
37132;BME280;23035;50.032;21.978;2024-01-30T06:43:30;65417.72;;;2.35;100.00
37132;BME280;23035;50.032;21.978;2024-01-30T06:48:35;65456.19;;;2.74;100.00
37132;BME280;23035;50.032;21.978;2024-01-30T06:53:40;65413.38;;;2.28;100.00
37132;BME280;23035;50.032;21.978;2024-01-30T06:58:46;65488.25;;;3.07;100.00
37132;BME280;23035;50.032;21.978;2024-01-30T07:03:50;65515.25;;;3.28;100.00
37132;BME280;23035;50.032;21.978;2024-01-30T07:08:55;65461.94;;;2.77;100.00
37132;BME280;23035;50.032;21.978;2024-01-30T07:14:01;65474.94;;;2.94;100.00
37132;BME280;23035;50.032;21.978;2024-01-30T07:19:06;65492.34;;;3.06;100.00
37132;BME280;23035;50.032;21.978;2024-01-30T07:24:13;65460.00;;;2.80;100.00
37132;BME280;23035;50.032;21.978;2024-01-30T07:29:19;65395.88;;;2.14;100.00
37132;BME280;23035;50.032;21.978;2024-01-30T07:34:25;65470.13;;;2.90;100.00
37132;BME280;23035;50.032;21.978;2024-01-30T07:39:34;65522.28;;;3.37;97.33
37132;BME280;23035;50.032;21.978;2024-01-30T07:51:16;65543.78;;;3.62;91.51
37132;BME280;23035;50.032;21.978;2024-01-30T07:56:28;65578.91;;;3.93;91.65
37132;BME280;23035;50.032;21.978;2024-01-30T08:01:40;65524.59;;;3.44;96.70
37132;BME280;23035;50.032;21.978;2024-01-30T08:06:46;65589.47;;;4.01;92.62
37132;BME280;23035;50.032;21.978;2024-01-30T08:11:50;65575.16;;;3.90;91.62
37132;BME280;23035;50.032;21.978;2024-01-30T08:17:01;65549.56;;;3.65;90.63
37132;BME280;23035;50.032;21.978;2024-01-30T08:22:26;65622.44;;;4.30;88.74
37132;BME280;23035;50.032;21.978;2024-01-30T08:27:30;65663.91;;;4.79;82.28
37132;BME280;23035;50.032;21.978;2024-01-30T08:32:35;65625.75;;;4.36;84.97
37132;BME280;23035;50.032;21.978;2024-01-30T08:37:44;65583.06;;;3.95;88.85
37132;BME280;23035;50.032;21.978;2024-01-30T08:42:49;65636.88;;;4.44;84.88
37132;BME280;23035;50.032;21.978;2024-01-30T08:47:56;65669.59;;;4.80;82.44
37132;BME280;23035;50.032;21.978;2024-01-30T08:53:03;65675.56;;;4.88;81.83
37132;BME280;23035;50.032;21.978;2024-01-30T08:58:09;65665.78;;;4.74;82.27
37132;BME280;23035;50.032;21.978;2024-01-30T09:03:16;65672.28;;;4.82;83.28
37132;BME280;23035;50.032;21.978;2024-01-30T09:08:23;65634.28;;;4.44;87.07
37132;BME280;23035;50.032;21.978;2024-01-30T09:13:28;65688.19;;;4.95;84.25
37132;BME280;23035;50.032;21.978;2024-01-30T09:18:33;65726.75;;;5.34;82.35
37132;BME280;23035;50.032;21.978;2024-01-30T09:23:42;65734.03;;;5.36;80.47
37132;BME280;23035;50.032;21.978;2024-01-30T09:28:47;65752.91;;;5.59;80.70
37132;BME280;23035;50.032;21.978;2024-01-30T09:40:06;65638.03;;;4.47;84.37
37132;BME280;23035;50.032;21.978;2024-01-30T09:45:20;65716.06;;;5.24;82.44
37132;BME280;23035;50.032;21.978;2024-01-30T09:50:36;65741.16;;;5.48;83.92
37132;BME280;23035;50.032;21.978;2024-01-30T09:55:58;65753.00;;;5.62;82.36
37132;BME280;23035;50.032;21.978;2024-01-30T10:01:28;65797.34;;;6.04;80.23
37132;BME280;23035;50.032;21.978;2024-01-30T10:06:37;65788.72;;;5.93;80.72
37132;BME280;23035;50.032;21.978;2024-01-30T10:11:48;65876.28;;;6.74;80.50
37132;BME280;23035;50.032;21.978;2024-01-30T10:16:54;65781.13;;;5.84;81.38
37132;BME280;23035;50.032;21.978;2024-01-30T10:22:00;65744.91;;;5.52;83.95
37132;BME280;23035;50.032;21.978;2024-01-30T10:27:07;65765.63;;;5.69;84.58
37132;BME280;23035;50.032;21.978;2024-01-30T10:32:17;65812.75;;;6.16;83.08
37132;BME280;23035;50.032;21.978;2024-01-30T10:37:24;65759.84;;;5.66;84.49
37132;BME280;23035;50.032;21.978;2024-01-30T10:42:32;65805.28;;;6.09;83.96
37132;BME280;23035;50.032;21.978;2024-01-30T10:47:45;65804.56;;;6.03;83.80
37132;BME280;23035;50.032;21.978;2024-01-30T10:52:53;65854.09;;;6.60;84.34
37132;BME280;23035;50.032;21.978;2024-01-30T10:58:00;65924.94;;;7.21;82.33
37132;BME280;23035;50.032;21.978;2024-01-30T11:03:12;65901.06;;;7.03;81.32
37132;BME280;23035;50.032;21.978;2024-01-30T11:08:23;65889.75;;;6.89;80.78
37132;BME280;23035;50.032;21.978;2024-01-30T11:13:31;65960.88;;;7.57;81.54
37132;BME280;23035;50.032;21.978;2024-01-30T11:18:36;65909.69;;;7.13;83.06
37132;BME280;23035;50.032;21.978;2024-01-30T11:23:42;65908.97;;;7.08;84.09
37132;BME280;23035;50.032;21.978;2024-01-30T11:28:55;65929.84;;;7.28;83.98
37132;BME280;23035;50.032;21.978;2024-01-30T11:34:01;65885.53;;;6.88;86.19
37132;BME280;23035;50.032;21.978;2024-01-30T11:39:10;65786.06;;;5.91;89.46
37132;BME280;23035;50.032;21.978;2024-01-30T11:44:17;65921.47;;;7.25;85.51
37132;BME280;23035;50.032;21.978;2024-01-30T11:49:24;65913.72;;;7.10;86.49
37132;BME280;23035;50.032;21.978;2024-01-30T11:54:39;65870.50;;;6.71;89.45
37132;BME280;23035;50.032;21.978;2024-01-30T11:59:46;65836.19;;;6.36;89.61
37132;BME280;23035;50.032;21.978;2024-01-30T12:04:51;65899.72;;;6.94;88.64
37132;BME280;23035;50.032;21.978;2024-01-30T12:09:56;65906.13;;;7.00;87.11
37132;BME280;23035;50.032;21.978;2024-01-30T12:15:01;65944.28;;;7.41;87.03
37132;BME280;23035;50.032;21.978;2024-01-30T12:20:29;66089.53;;;8.84;81.98
37132;BME280;23035;50.032;21.978;2024-01-30T12:25:33;66169.25;;;9.58;79.19
37132;BME280;23035;50.032;21.978;2024-01-30T12:30:42;66115.25;;;9.09;81.27
37132;BME280;23035;50.032;21.978;2024-01-30T12:36:34;66119.25;;;9.05;81.03
37132;BME280;23035;50.032;21.978;2024-01-30T12:41:42;66129.34;;;9.12;81.65
37132;BME280;23035;50.032;21.978;2024-01-30T12:47:14;66084.53;;;8.75;83.39
37132;BME280;23035;50.032;21.978;2024-01-30T12:52:21;66086.75;;;8.79;83.93
37132;BME280;23035;50.032;21.978;2024-01-30T12:57:27;66182.03;;;9.67;82.67
37132;BME280;23035;50.032;21.978;2024-01-30T13:02:33;66103.09;;;8.87;83.77
37132;BME280;23035;50.032;21.978;2024-01-30T13:07:39;66119.88;;;9.08;82.89
37132;BME280;23035;50.032;21.978;2024-01-30T13:13:22;66188.91;;;9.71;83.92
37132;BME280;23035;50.032;21.978;2024-01-30T13:19:07;66162.03;;;9.43;83.96
37132;BME280;23035;50.032;21.978;2024-01-30T13:24:32;66176.59;;;9.60;83.64
37132;BME280;23035;50.032;21.978;2024-01-30T13:30:14;66184.34;;;9.74;84.72
37132;BME280;23035;50.032;21.978;2024-01-30T13:36:03;66196.59;;;9.84;83.87
37132;BME280;23035;50.032;21.978;2024-01-30T13:42:35;66143.53;;;9.33;86.31
37132;BME280;23035;50.032;21.978;2024-01-30T13:48:53;66158.47;;;9.45;86.29
37132;BME280;23035;50.032;21.978;2024-01-30T14:09:18;66125.88;;;9.16;86.79
37132;BME280;23035;50.032;21.978;2024-01-30T14:20:59;66139.06;;;9.24;87.43
37132;BME280;23035;50.032;21.978;2024-01-30T14:26:48;66035.88;;;8.31;89.58
37132;BME280;23035;50.032;21.978;2024-01-30T14:32:45;66075.88;;;8.64;89.57
37132;BME280;23035;50.032;21.978;2024-01-30T14:37:55;65982.28;;;7.78;92.19
37132;BME280;23035;50.032;21.978;2024-01-30T14:43:31;65976.75;;;7.67;91.99
37132;BME280;23035;50.032;21.978;2024-01-30T14:48:48;65947.56;;;7.47;93.55
37132;BME280;23035;50.032;21.978;2024-01-30T14:53:58;65946.97;;;7.44;93.50
37132;BME280;23035;50.032;21.978;2024-01-30T15:05:40;65877.44;;;6.78;96.88
37132;BME280;23035;50.032;21.978;2024-01-30T15:10:54;65799.84;;;6.01;100.00
37132;BME280;23035;50.032;21.978;2024-01-30T15:15:59;65728.44;;;5.38;100.00
37132;BME280;23035;50.032;21.978;2024-01-30T15:21:23;65671.19;;;4.81;100.00
37132;BME280;23035;50.032;21.978;2024-01-30T15:26:28;65665.34;;;4.76;100.00
37132;BME280;23035;50.032;21.978;2024-01-30T15:31:32;65672.81;;;4.83;100.00
37132;BME280;23035;50.032;21.978;2024-01-30T15:36:38;65611.53;;;4.27;100.00
37132;BME280;23035;50.032;21.978;2024-01-30T15:41:42;65626.19;;;4.34;100.00
37132;BME280;23035;50.032;21.978;2024-01-30T15:46:47;65636.44;;;4.46;100.00
37132;BME280;23035;50.032;21.978;2024-01-30T15:51:52;65610.91;;;4.24;100.00
37132;BME280;23035;50.032;21.978;2024-01-30T15:56:56;65618.81;;;4.29;100.00
37132;BME280;23035;50.032;21.978;2024-01-30T16:02:01;65570.16;;;3.80;100.00
37132;BME280;23035;50.032;21.978;2024-01-30T16:07:08;65534.63;;;3.51;100.00
37132;BME280;23035;50.032;21.978;2024-01-30T16:12:12;65521.84;;;3.39;100.00
37132;BME280;23035;50.032;21.978;2024-01-30T16:17:17;65575.69;;;3.90;100.00
37132;BME280;23035;50.032;21.978;2024-01-30T16:22:22;65531.75;;;3.43;100.00
37132;BME280;23035;50.032;21.978;2024-01-30T16:27:27;65486.13;;;3.05;100.00
37132;BME280;23035;50.032;21.978;2024-01-30T16:32:32;65464.72;;;2.82;100.00
37132;BME280;23035;50.032;21.978;2024-01-30T16:37:41;65489.94;;;3.11;100.00
37132;BME280;23035;50.032;21.978;2024-01-30T16:42:47;65461.06;;;2.81;100.00
37132;BME280;23035;50.032;21.978;2024-01-30T16:47:52;65496.06;;;3.09;100.00
37132;BME280;23035;50.032;21.978;2024-01-30T16:52:58;65447.13;;;2.65;100.00
37132;BME280;23035;50.032;21.978;2024-01-30T16:58:03;65508.94;;;3.24;100.00
37132;BME280;23035;50.032;21.978;2024-01-30T17:03:08;65479.72;;;2.99;100.00
37132;BME280;23035;50.032;21.978;2024-01-30T17:08:14;65426.53;;;2.50;100.00
37132;BME280;23035;50.032;21.978;2024-01-30T17:13:19;65500.09;;;3.21;100.00
37132;BME280;23035;50.032;21.978;2024-01-30T17:18:23;65392.78;;;2.13;100.00
37132;BME280;23035;50.032;21.978;2024-01-30T17:23:29;65445.97;;;2.62;100.00
37132;BME280;23035;50.032;21.978;2024-01-30T17:28:37;65425.38;;;2.47;100.00
37132;BME280;23035;50.032;21.978;2024-01-30T17:33:41;65390.56;;;2.09;100.00
37132;BME280;23035;50.032;21.978;2024-01-30T17:38:48;65464.06;;;2.79;100.00
37132;BME280;23035;50.032;21.978;2024-01-30T17:43:53;65425.72;;;2.42;100.00
37132;BME280;23035;50.032;21.978;2024-01-30T17:49:25;65472.06;;;2.86;100.00
37132;BME280;23035;50.032;21.978;2024-01-30T17:54:34;65389.50;;;2.08;100.00
37132;BME280;23035;50.032;21.978;2024-01-30T17:59:38;65433.19;;;2.49;100.00
37132;BME280;23035;50.032;21.978;2024-01-30T18:04:43;65384.78;;;2.06;100.00
37132;BME280;23035;50.032;21.978;2024-01-30T18:09:51;65433.81;;;2.52;100.00
37132;BME280;23035;50.032;21.978;2024-01-30T18:14:56;65441.78;;;2.60;100.00
37132;BME280;23035;50.032;21.978;2024-01-30T18:20:00;65383.31;;;2.07;100.00
37132;BME280;23035;50.032;21.978;2024-01-30T18:25:07;65395.56;;;2.18;100.00
37132;BME280;23035;50.032;21.978;2024-01-30T18:30:13;65456.63;;;2.72;100.00
37132;BME280;23035;50.032;21.978;2024-01-30T18:35:17;65388.63;;;2.12;100.00
37132;BME280;23035;50.032;21.978;2024-01-30T18:40:22;65393.00;;;2.18;100.00
37132;BME280;23035;50.032;21.978;2024-01-30T18:45:27;65402.47;;;2.25;100.00
37132;BME280;23035;50.032;21.978;2024-01-30T18:50:34;65398.22;;;2.21;100.00
37132;BME280;23035;50.032;21.978;2024-01-30T18:55:40;65413.13;;;2.35;100.00
37132;BME280;23035;50.032;21.978;2024-01-30T19:00:45;65369.47;;;1.93;100.00
37132;BME280;23035;50.032;21.978;2024-01-30T19:05:51;65331.47;;;1.52;100.00
37132;BME280;23035;50.032;21.978;2024-01-30T19:10:57;65360.41;;;1.85;100.00
37132;BME280;23035;50.032;21.978;2024-01-30T19:16:03;65400.25;;;2.20;100.00
37132;BME280;23035;50.032;21.978;2024-01-30T19:21:11;65401.22;;;2.19;100.00
37132;BME280;23035;50.032;21.978;2024-01-30T19:26:17;65379.91;;;1.98;100.00
37132;BME280;23035;50.032;21.978;2024-01-30T19:31:22;65413.91;;;2.28;100.00
37132;BME280;23035;50.032;21.978;2024-01-30T19:36:26;65368.19;;;1.87;100.00
37132;BME280;23035;50.032;21.978;2024-01-30T19:41:32;65438.06;;;2.56;100.00
37132;BME280;23035;50.032;21.978;2024-01-30T19:46:36;65386.81;;;2.05;100.00
37132;BME280;23035;50.032;21.978;2024-01-30T19:51:41;65438.59;;;2.57;100.00
37132;BME280;23035;50.032;21.978;2024-01-30T19:56:47;65460.44;;;2.78;100.00
37132;BME280;23035;50.032;21.978;2024-01-30T20:01:51;65451.81;;;2.67;100.00
37132;BME280;23035;50.032;21.978;2024-01-30T20:06:56;65407.81;;;2.30;100.00
37132;BME280;23035;50.032;21.978;2024-01-30T20:12:04;65479.53;;;2.94;100.00
37132;BME280;23035;50.032;21.978;2024-01-30T20:17:09;65458.22;;;2.73;100.00
37132;BME280;23035;50.032;21.978;2024-01-30T20:22:16;65452.34;;;2.68;100.00
37132;BME280;23035;50.032;21.978;2024-01-30T20:27:22;65411.00;;;2.33;100.00
37132;BME280;23035;50.032;21.978;2024-01-30T20:32:27;65419.88;;;2.37;100.00
37132;BME280;23035;50.032;21.978;2024-01-30T20:37:31;65422.53;;;2.39;100.00
37132;BME280;23035;50.032;21.978;2024-01-30T20:42:37;65357.00;;;1.77;100.00
37132;BME280;23035;50.032;21.978;2024-01-30T20:47:41;65381.16;;;2.05;100.00
37132;BME280;23035;50.032;21.978;2024-01-30T20:52:46;65346.88;;;1.67;100.00
37132;BME280;23035;50.032;21.978;2024-01-30T20:57:52;65348.59;;;1.71;100.00
37132;BME280;23035;50.032;21.978;2024-01-30T21:02:56;65447.03;;;2.63;100.00
37132;BME280;23035;50.032;21.978;2024-01-30T21:08:01;65409.31;;;2.29;100.00
37132;BME280;23035;50.032;21.978;2024-01-30T21:13:07;65384.91;;;2.08;100.00
37132;BME280;23035;50.032;21.978;2024-01-30T21:18:12;65437.88;;;2.51;100.00
37132;BME280;23035;50.032;21.978;2024-01-30T21:23:17;65357.13;;;1.79;100.00
37132;BME280;23035;50.032;21.978;2024-01-30T21:28:23;65423.59;;;2.40;100.00
37132;BME280;23035;50.032;21.978;2024-01-30T21:33:28;65422.97;;;2.37;100.00
37132;BME280;23035;50.032;21.978;2024-01-30T21:38:35;65451.50;;;2.72;100.00
37132;BME280;23035;50.032;21.978;2024-01-30T21:43:41;65470.13;;;2.90;100.00
37132;BME280;23035;50.032;21.978;2024-01-30T21:48:51;65384.38;;;2.08;100.00
37132;BME280;23035;50.032;21.978;2024-01-30T21:53:56;65408.25;;;2.28;100.00
37132;BME280;23035;50.032;21.978;2024-01-30T21:59:01;65419.44;;;2.39;100.00
37132;BME280;23035;50.032;21.978;2024-01-30T22:04:06;65373.63;;;1.95;100.00
37132;BME280;23035;50.032;21.978;2024-01-30T22:09:10;65359.88;;;1.84;100.00
37132;BME280;23035;50.032;21.978;2024-01-30T22:14:16;65317.91;;;1.47;100.00
37132;BME280;23035;50.032;21.978;2024-01-30T22:19:23;65300.59;;;1.23;100.00
37132;BME280;23035;50.032;21.978;2024-01-30T22:24:27;65280.91;;;1.04;100.00
37132;BME280;23035;50.032;21.978;2024-01-30T22:29:33;65304.31;;;1.26;100.00
37132;BME280;23035;50.032;21.978;2024-01-30T22:34:37;65317.63;;;1.39;100.00
37132;BME280;23035;50.032;21.978;2024-01-30T22:39:41;65267.50;;;0.89;100.00
37132;BME280;23035;50.032;21.978;2024-01-30T22:44:48;65292.81;;;1.20;100.00
37132;BME280;23035;50.032;21.978;2024-01-30T22:49:52;65280.25;;;1.01;100.00
37132;BME280;23035;50.032;21.978;2024-01-30T22:54:57;65307.06;;;1.31;100.00
37132;BME280;23035;50.032;21.978;2024-01-30T23:00:03;65300.06;;;1.22;100.00
37132;BME280;23035;50.032;21.978;2024-01-30T23:05:11;65307.19;;;1.34;100.00
37132;BME280;23035;50.032;21.978;2024-01-30T23:10:16;65267.59;;;0.91;100.00
37132;BME280;23035;50.032;21.978;2024-01-30T23:15:23;65318.25;;;1.42;100.00
37132;BME280;23035;50.032;21.978;2024-01-30T23:20:28;65236.22;;;0.61;100.00
37132;BME280;23035;50.032;21.978;2024-01-30T23:25:32;65347.63;;;1.72;100.00
37132;BME280;23035;50.032;21.978;2024-01-30T23:30:38;65254.94;;;0.81;100.00
37132;BME280;23035;50.032;21.978;2024-01-30T23:35:43;65297.06;;;1.24;100.00
37132;BME280;23035;50.032;21.978;2024-01-30T23:40:47;65276.13;;;0.99;100.00
37132;BME280;23035;50.032;21.978;2024-01-30T23:45:53;65317.72;;;1.41;100.00
37132;BME280;23035;50.032;21.978;2024-01-30T23:50:57;65313.03;;;1.39;100.00
37132;BME280;23035;50.032;21.978;2024-01-30T23:56:02;65297.94;;;1.20;100.00
